Time;durP1;ratioP1;P1;durP2;ratioP2;P2;SDS_P1;SDS_P2;PMS_P1;PMS_P2;Temp;Humidity;BMP_temperature;BMP_pressure;BME280_temperature;BME280_humidity;BME280_pressure;Samples;Min_cycle;Max_cycle;Signal;HPM_P1;HPM_P2
2022/10/02 00:01:49;;;;;;;10.47;2.60;;;11.10;99.90;;;;;;5064678;28;20163;-81
2022/10/02 00:04:21;;;;;;;17.87;3.30;;;11.20;99.90;;;;;;5061733;28;20210;-81
2022/10/02 00:06:49;;;;;;;14.07;2.60;;;11.30;99.90;;;;;;5061856;28;20209;-80
2022/10/02 00:09:26;;;;;;;14.17;2.93;;;11.30;99.90;;;;;;5059064;28;20175;-81
2022/10/02 00:11:56;;;;;;;12.27;3.20;;;11.40;99.90;;;;;;5060712;28;20205;-81
2022/10/02 00:14:25;;;;;;;10.93;2.37;;;11.40;99.90;;;;;;5061259;28;20290;-78
2022/10/02 00:16:54;;;;;;;15.43;2.17;;;11.40;99.90;;;;;;5061533;28;20183;-81
2022/10/02 00:19:20;;;;;;;9.33;2.47;;;11.30;99.90;;;;;;5062101;28;20163;-80
2022/10/02 00:22:07;;;;;;;12.33;2.00;;;11.30;99.90;;;;;;5060009;28;20522;-80
2022/10/02 00:24:45;;;;;;;19.43;2.73;;;11.30;99.90;;;;;;5059047;28;20195;-80
2022/10/02 00:27:25;;;;;;;20.53;3.30;;;11.30;99.90;;;;;;5059804;28;20541;-81
2022/10/02 00:29:54;;;;;;;21.20;3.20;;;11.40;99.90;;;;;;5061050;28;20250;-81
2022/10/02 00:32:43;;;;;;;18.67;2.73;;;11.50;99.90;;;;;;5060642;28;20224;-80
2022/10/02 00:35:20;;;;;;;18.60;2.63;;;11.50;99.90;;;;;;5059786;28;20152;-81
2022/10/02 00:38:05;;;;;;;16.23;3.27;;;11.60;99.90;;;;;;5059934;28;20537;-81
2022/10/02 00:41:02;;;;;;;29.60;3.10;;;11.70;99.90;;;;;;5060081;28;20171;-80
2022/10/02 00:43:49;;;;;;;16.93;3.50;;;11.90;99.90;;;;;;5052015;28;20216;-81
2022/10/02 00:46:37;;;;;;;23.60;3.63;;;12.00;99.90;;;;;;5058914;28;20248;-80
2022/10/02 00:49:19;;;;;;;17.37;3.03;;;12.10;99.90;;;;;;5057703;28;20198;-79
2022/10/02 00:52:15;;;;;;;15.90;2.80;;;12.20;99.90;;;;;;5060811;28;20167;-80
2022/10/02 00:54:58;;;;;;;20.33;3.07;;;12.30;99.90;;;;;;5057616;28;20167;-79
2022/10/02 00:58:04;;;;;;;14.17;2.90;;;12.50;99.90;;;;;;5058267;28;20167;-78
2022/10/02 01:00:30;;;;;;;16.60;2.83;;;12.50;99.90;;;;;;5059458;28;20186;-80
2022/10/02 01:03:16;;;;;;;21.70;3.53;;;12.60;99.90;;;;;;5060218;28;20207;-79
2022/10/02 01:05:42;;;;;;;16.03;2.70;;;12.70;99.90;;;;;;5060331;28;20516;-78
2022/10/02 01:08:08;;;;;;;21.27;3.50;;;12.70;99.90;;;;;;5059621;28;20168;-81
2022/10/02 01:10:36;;;;;;;17.63;3.10;;;12.70;99.90;;;;;;5061284;28;20195;-80
2022/10/02 01:13:01;;;;;;;27.73;3.60;;;12.70;99.90;;;;;;5059377;28;20688;-81
2022/10/02 01:15:32;;;;;;;18.00;3.00;;;12.70;99.90;;;;;;5059435;28;20171;-80
2022/10/02 01:17:57;;;;;;;21.27;3.10;;;12.70;99.90;;;;;;5056031;28;20194;-80
2022/10/02 01:20:36;;;;;;;17.57;3.03;;;12.70;99.90;;;;;;5058210;28;20175;-80
2022/10/02 01:23:20;;;;;;;15.57;3.17;;;12.70;99.90;;;;;;5057302;28;20269;-80
2022/10/02 01:25:46;;;;;;;30.13;4.47;;;12.70;99.90;;;;;;5056638;28;20254;-79
2022/10/02 01:28:12;;;;;;;27.07;3.53;;;12.80;99.90;;;;;;5059637;28;20630;-80
2022/10/02 01:30:40;;;;;;;26.80;3.57;;;12.80;99.90;;;;;;5059215;28;20192;-80
2022/10/02 01:33:06;;;;;;;13.10;2.80;;;12.90;99.90;;;;;;5058141;28;20195;-80
2022/10/02 01:35:36;;;;;;;18.20;3.23;;;12.90;99.90;;;;;;5059405;28;20171;-80
2022/10/02 01:38:06;;;;;;;17.90;2.77;;;12.90;99.90;;;;;;5059130;28;20187;-76
2022/10/02 01:40:37;;;;;;;19.13;3.23;;;12.80;99.90;;;;;;5057871;28;20713;-80
2022/10/02 01:43:09;;;;;;;17.70;3.13;;;12.90;99.90;;;;;;5059420;28;20661;-79
2022/10/02 01:46:02;;;;;;;17.10;3.23;;;12.90;99.90;;;;;;5057176;28;20566;-81
2022/10/02 01:48:43;;;;;;;19.97;3.33;;;13.00;99.90;;;;;;5061048;28;20218;-80
2022/10/02 01:51:23;;;;;;;19.40;3.13;;;13.00;99.90;;;;;;5060197;28;20249;-81
2022/10/02 01:54:02;;;;;;;25.43;3.43;;;13.10;99.90;;;;;;5059170;28;20295;-80
2022/10/02 01:56:45;;;;;;;21.67;3.63;;;13.20;99.90;;;;;;5060721;28;20644;-80
2022/10/02 01:59:35;;;;;;;24.43;3.60;;;13.20;99.90;;;;;;5060867;28;20152;-80
2022/10/02 02:02:28;;;;;;;18.07;3.23;;;13.10;99.90;;;;;;5060624;28;20183;-78
2022/10/02 02:05:11;;;;;;;19.80;3.30;;;13.10;99.90;;;;;;5052689;28;20192;-77
2022/10/02 02:08:00;;;;;;;14.27;3.27;;;13.20;99.90;;;;;;5059216;28;20175;-80
2022/10/02 02:10:56;;;;;;;22.07;3.80;;;13.20;99.90;;;;;;5060310;28;20187;-79
2022/10/02 02:13:53;;;;;;;15.20;3.33;;;13.20;99.90;;;;;;5060759;28;20241;-80
2022/10/02 02:16:32;;;;;;;20.77;3.27;;;13.20;99.90;;;;;;5053772;28;20183;-80
2022/10/02 02:19:09;;;;;;;25.97;3.63;;;13.20;99.90;;;;;;5069883;28;20683;-80
2022/10/02 02:21:41;;;;;;;16.50;3.37;;;13.10;99.90;;;;;;5063416;28;20152;-80
2022/10/02 02:24:14;;;;;;;20.13;3.63;;;13.10;99.90;;;;;;5058097;28;20191;-79
2022/10/02 02:26:42;;;;;;;29.57;4.53;;;13.10;99.90;;;;;;5056677;28;20517;-78
2022/10/02 02:29:09;;;;;;;21.63;3.20;;;13.10;99.90;;;;;;5060207;28;20207;-80
2022/10/02 02:31:46;;;;;;;17.90;3.40;;;13.10;99.90;;;;;;5057454;28;20677;-79
2022/10/02 02:34:17;;;;;;;17.23;3.60;;;13.10;99.90;;;;;;5058029;28;20189;-80
2022/10/02 02:36:46;;;;;;;22.63;3.70;;;13.10;99.90;;;;;;5058310;28;20166;-80
2022/10/02 02:39:17;;;;;;;22.33;3.27;;;13.10;99.90;;;;;;5056791;28;20164;-80
2022/10/02 02:41:52;;;;;;;25.87;4.57;;;13.10;99.90;;;;;;5050945;28;20169;-79
2022/10/02 02:44:30;;;;;;;18.23;3.43;;;13.10;99.90;;;;;;5036199;28;20202;-79
2022/10/02 02:47:23;;;;;;;17.77;3.80;;;13.10;99.90;;;;;;5059838;28;20160;-79
2022/10/02 02:49:54;;;;;;;28.80;4.00;;;13.00;99.90;;;;;;5060626;28;20219;-80
2022/10/02 02:52:32;;;;;;;23.63;4.30;;;13.10;99.90;;;;;;5059446;28;20171;-79
2022/10/02 02:55:24;;;;;;;20.87;3.40;;;13.10;99.90;;;;;;5060665;28;20242;-79
2022/10/02 02:58:06;;;;;;;26.17;4.33;;;13.10;99.90;;;;;;5053122;28;20183;-80
2022/10/02 03:00:32;;;;;;;22.07;4.23;;;13.10;99.90;;;;;;5039389;28;20179;-80
2022/10/02 03:02:57;;;;;;;23.27;3.60;;;13.20;99.90;;;;;;5040745;28;20211;-78
2022/10/02 03:05:23;;;;;;;25.27;4.83;;;13.30;99.90;;;;;;5040124;28;20173;-80
2022/10/02 03:07:52;;;;;;;22.73;3.03;;;13.30;99.90;;;;;;5040848;28;20730;-79
2022/10/02 03:10:24;;;;;;;22.00;3.47;;;13.30;99.90;;;;;;5040257;28;20196;-79
2022/10/02 03:13:09;;;;;;;21.80;3.30;;;13.30;99.90;;;;;;5039193;28;20283;-80
2022/10/02 03:15:52;;;;;;;21.83;4.17;;;13.30;99.90;;;;;;5042845;28;20646;-80
2022/10/02 03:18:30;;;;;;;21.17;4.00;;;13.30;99.90;;;;;;5059924;28;20151;-79
2022/10/02 03:21:25;;;;;;;23.93;3.87;;;13.30;99.90;;;;;;5058674;28;20194;-79
2022/10/02 03:23:58;;;;;;;18.00;3.07;;;13.30;99.90;;;;;;5057855;28;20212;-80
2022/10/02 03:26:28;;;;;;;30.73;4.17;;;13.30;99.90;;;;;;5058922;28;20160;-77
2022/10/02 03:28:56;;;;;;;18.87;4.47;;;13.30;99.90;;;;;;5058397;28;20179;-78
2022/10/02 03:31:24;;;;;;;21.27;3.80;;;13.30;99.90;;;;;;5058868;28;20199;-78
2022/10/02 03:33:52;;;;;;;15.37;3.20;;;13.30;99.90;;;;;;5059346;28;20191;-79
2022/10/02 03:36:20;;;;;;;27.20;3.40;;;13.30;99.90;;;;;;5060099;28;20226;-80
2022/10/02 03:38:46;;;;;;;17.20;3.53;;;13.30;99.90;;;;;;5061857;28;20190;-80
2022/10/02 03:41:13;;;;;;;19.23;3.23;;;13.40;99.90;;;;;;5061891;28;20539;-78
2022/10/02 03:43:38;;;;;;;20.20;3.73;;;13.30;99.90;;;;;;5060610;28;20290;-76
2022/10/02 03:46:04;;;;;;;25.63;3.83;;;13.40;99.90;;;;;;5060254;28;20211;-79
2022/10/02 03:48:29;;;;;;;28.67;3.70;;;13.40;99.90;;;;;;5061526;28;20183;-80
2022/10/02 03:50:55;;;;;;;23.43;3.77;;;13.40;99.90;;;;;;5060652;28;20196;-80
2022/10/02 03:53:28;;;;;;;23.80;3.57;;;13.50;99.90;;;;;;5061956;28;20202;-80
2022/10/02 03:56:06;;;;;;;27.57;4.30;;;13.60;99.90;;;;;;5061773;28;20167;-80
2022/10/02 03:58:33;;;;;;;22.83;3.87;;;13.60;99.90;;;;;;5062109;28;20239;-80
2022/10/02 04:01:22;;;;;;;28.20;4.87;;;13.60;99.90;;;;;;5060539;28;20186;-79
2022/10/02 04:04:12;;;;;;;17.87;3.40;;;13.60;99.90;;;;;;5078607;22;20299;-74
2022/10/02 04:06:46;;;;;;;18.77;3.93;;;13.60;99.90;;;;;;5075506;28;20147;-74
2022/10/02 04:09:26;;;;;;;20.97;3.47;;;13.70;99.90;;;;;;5075104;28;20525;-74
2022/10/02 04:12:15;;;;;;;16.63;2.63;;;13.70;99.90;;;;;;5075419;28;20174;-74
2022/10/02 04:14:57;;;;;;;11.73;3.17;;;13.70;99.90;;;;;;5073632;28;20191;-73
2022/10/02 04:17:29;;;;;;;13.53;2.77;;;13.70;99.90;;;;;;5075019;28;20243;-74
2022/10/02 04:19:58;;;;;;;14.77;2.67;;;13.70;99.90;;;;;;5075281;28;20167;-74
2022/10/02 04:22:38;;;;;;;11.30;2.47;;;13.70;99.90;;;;;;5074843;28;20645;-73
2022/10/02 04:25:09;;;;;;;15.77;2.87;;;13.70;99.90;;;;;;5073518;28;20676;-72
2022/10/02 04:27:58;;;;;;;10.30;2.13;;;13.70;99.90;;;;;;5075088;28;20167;-74
2022/10/02 04:30:24;;;;;;;10.57;2.10;;;13.70;99.90;;;;;;5074870;28;20191;-73
2022/10/02 04:32:49;;;;;;;11.13;2.57;;;13.60;99.90;;;;;;5073362;28;20193;-74
2022/10/02 04:35:49;;;;;;;7.20;2.00;;;13.60;99.90;;;;;;5073705;28;20195;-75
2022/10/02 04:38:33;;;;;;;8.40;1.97;;;13.50;99.90;;;;;;5074602;28;20705;-74
2022/10/02 04:41:10;;;;;;;9.93;1.97;;;13.50;99.90;;;;;;5075091;28;20159;-74
2022/10/02 04:43:39;;;;;;;5.93;2.40;;;13.50;99.90;;;;;;5074925;28;20198;-74
2022/10/02 04:46:13;;;;;;;8.27;2.13;;;13.40;99.90;;;;;;5074636;28;20175;-73
2022/10/02 04:48:55;;;;;;;13.50;2.20;;;13.40;99.90;;;;;;5073124;28;20177;-74
2022/10/02 04:51:49;;;;;;;8.87;2.30;;;13.40;99.90;;;;;;5074197;28;20187;-74
2022/10/02 04:54:38;;;;;;;14.10;2.70;;;13.30;99.90;;;;;;5074200;28;20194;-74
2022/10/02 04:57:41;;;;;;;9.70;2.27;;;13.30;99.90;;;;;;5074200;28;20267;-74
2022/10/02 05:00:18;;;;;;;6.63;1.93;;;13.40;99.90;;;;;;5074062;28;20178;-75
2022/10/02 05:03:20;;;;;;;11.40;2.97;;;13.40;99.90;;;;;;5072799;28;20171;-74
2022/10/02 05:06:07;;;;;;;9.63;3.27;;;13.30;99.90;;;;;;5072717;28;20177;-74
2022/10/02 05:08:53;;;;;;;10.00;3.10;;;13.40;99.90;;;;;;5072107;28;20179;-74
2022/10/02 05:11:30;;;;;;;12.50;2.43;;;13.40;99.90;;;;;;5072601;28;20191;-74
2022/10/02 05:14:44;;;;;;;6.97;2.00;;;13.40;99.90;;;;;;5073742;28;20189;-72
2022/10/02 05:17:44;;;;;;;9.63;2.70;;;13.30;99.90;;;;;;5050685;28;20266;-73
2022/10/02 05:20:49;;;;;;;14.07;2.20;;;13.40;99.90;;;;;;5067789;28;20221;-73
2022/10/02 05:23:39;;;;;;;6.37;1.83;;;13.40;99.90;;;;;;5073982;28;20566;-74
2022/10/02 05:26:33;;;;;;;12.53;1.63;;;13.40;99.90;;;;;;5072190;28;20253;-73
2022/10/02 05:29:29;;;;;;;14.13;2.70;;;13.40;99.90;;;;;;5073709;28;20165;-73
2022/10/02 05:32:04;;;;;;;8.17;1.93;;;13.40;99.90;;;;;;5073493;28;20225;-73
2022/10/02 05:35:02;;;;;;;11.80;2.57;;;13.40;99.90;;;;;;5073457;28;20574;-73
2022/10/02 05:38:02;;;;;;;7.67;2.30;;;13.40;99.90;;;;;;5072129;28;20209;-73
2022/10/02 05:40:46;;;;;;;13.60;2.77;;;13.30;99.90;;;;;;5073660;28;20167;-73
2022/10/02 05:43:14;;;;;;;12.53;2.27;;;13.30;99.90;;;;;;5073241;28;20181;-74
2022/10/02 05:45:48;;;;;;;4.77;1.80;;;13.30;99.90;;;;;;5074005;28;20183;-73
2022/10/02 05:48:19;;;;;;;12.83;2.50;;;13.30;99.90;;;;;;5072171;28;20232;-74
2022/10/02 05:50:50;;;;;;;11.13;2.60;;;13.30;99.90;;;;;;5072056;28;20194;-74
2022/10/02 05:53:22;;;;;;;11.33;2.57;;;13.20;99.90;;;;;;5073348;28;20629;-73
2022/10/02 05:56:03;;;;;;;11.27;2.33;;;13.30;99.90;;;;;;5073419;28;20175;-73
2022/10/02 05:58:35;;;;;;;11.33;2.93;;;13.20;99.90;;;;;;5071968;28;20166;-74
2022/10/02 06:01:27;;;;;;;12.93;2.77;;;13.20;99.90;;;;;;5073368;28;20156;-74
2022/10/02 06:04:34;;;;;;;11.43;3.30;;;13.30;99.90;;;;;;5073004;28;20238;-74
2022/10/02 06:07:05;;;;;;;13.20;2.50;;;13.30;99.90;;;;;;5070659;28;20175;-73
2022/10/02 06:09:43;;;;;;;7.57;2.50;;;13.30;99.90;;;;;;5071981;28;20256;-75
2022/10/02 06:12:30;;;;;;;7.17;2.93;;;13.20;99.90;;;;;;5071899;28;20162;-73
2022/10/02 06:15:06;;;;;;;12.17;2.90;;;13.30;99.90;;;;;;5071908;28;20198;-74
2022/10/02 06:17:50;;;;;;;7.30;2.77;;;13.30;99.90;;;;;;5073565;28;20155;-73
2022/10/02 06:20:27;;;;;;;9.40;3.30;;;13.30;99.90;;;;;;5072173;28;20159;-74
2022/10/02 06:23:00;;;;;;;7.47;2.60;;;13.50;99.90;;;;;;5071510;28;20175;-73
2022/10/02 06:25:58;;;;;;;14.50;3.30;;;13.40;99.90;;;;;;5072769;28;20190;-74
2022/10/02 06:28:28;;;;;;;14.37;2.93;;;13.40;99.90;;;;;;5071415;28;20728;-73
2022/10/02 06:31:00;;;;;;;7.90;3.17;;;13.40;99.90;;;;;;5072586;28;20205;-74
2022/10/02 06:33:30;;;;;;;12.07;3.83;;;13.40;99.90;;;;;;5072829;28;20325;-73
2022/10/02 06:36:32;;;;;;;13.50;3.77;;;13.50;99.90;;;;;;5071425;28;20167;-73
2022/10/02 06:39:01;;;;;;;13.53;4.10;;;13.60;99.90;;;;;;5072743;28;20644;-74
2022/10/02 06:41:46;;;;;;;19.27;5.07;;;13.60;99.90;;;;;;5071408;28;20175;-74
2022/10/02 06:44:37;;;;;;;11.57;4.57;;;13.60;99.90;;;;;;5071257;28;20693;-76
2022/10/02 06:47:34;;;;;;;15.23;4.80;;;13.70;99.90;;;;;;5071506;28;20664;-77
2022/10/02 06:50:27;;;;;;;17.27;4.73;;;13.70;99.90;;;;;;5073056;28;20183;-77
2022/10/02 06:53:09;;;;;;;17.97;4.47;;;13.70;99.90;;;;;;5071475;28;20534;-77
2022/10/02 06:56:01;;;;;;;19.77;4.90;;;13.80;99.90;;;;;;5072011;28;20531;-77
2022/10/02 06:58:58;;;;;;;16.10;4.87;;;13.80;99.90;;;;;;5072542;28;20205;-74
2022/10/02 07:01:36;;;;;;;17.83;4.60;;;13.80;99.90;;;;;;5072772;28;20182;-75
2022/10/02 07:04:28;;;;;;;13.53;4.23;;;13.90;99.90;;;;;;5070934;28;20591;-75
2022/10/02 07:07:15;;;;;;;7.73;3.77;;;13.90;99.90;;;;;;5072886;28;20159;-76
2022/10/02 07:09:50;;;;;;;17.30;5.07;;;13.90;99.90;;;;;;5072620;28;20225;-75
2022/10/02 07:12:53;;;;;;;18.03;4.97;;;13.90;99.90;;;;;;5072630;28;20233;-75
2022/10/02 07:15:40;;;;;;;14.70;4.80;;;13.90;99.90;;;;;;5072806;28;20731;-77
2022/10/02 07:18:33;;;;;;;15.53;4.27;;;13.90;99.90;;;;;;5071247;28;20167;-75
2022/10/02 07:20:59;;;;;;;14.63;4.50;;;14.00;99.90;;;;;;5072584;28;20236;-75
2022/10/02 07:23:43;;;;;;;11.80;3.97;;;14.00;99.90;;;;;;5072522;28;20669;-75
2022/10/02 07:26:26;;;;;;;12.43;3.97;;;14.10;99.90;;;;;;5072520;28;20171;-75
2022/10/02 07:29:22;;;;;;;10.60;3.90;;;14.10;99.90;;;;;;5072431;28;20159;-75
2022/10/02 07:32:10;;;;;;;17.17;4.50;;;14.10;99.90;;;;;;5073414;28;20602;-75
2022/10/02 07:34:56;;;;;;;14.27;4.87;;;14.10;99.90;;;;;;5076016;28;20561;-75
2022/10/02 07:38:03;;;;;;;18.07;4.27;;;14.20;99.90;;;;;;5074666;28;20629;-75
2022/10/02 07:40:51;;;;;;;18.33;4.23;;;14.20;99.90;;;;;;5075612;28;20266;-75
2022/10/02 07:43:56;;;;;;;16.57;4.27;;;14.20;99.90;;;;;;5075671;28;20159;-75
2022/10/02 07:46:53;;;;;;;15.90;4.17;;;14.30;99.90;;;;;;5075782;28;20189;-75
2022/10/02 07:49:31;;;;;;;15.60;4.53;;;14.30;99.90;;;;;;5071685;28;20187;-75
2022/10/02 07:52:20;;;;;;;19.73;4.47;;;14.40;99.90;;;;;;5076045;28;20251;-76
2022/10/02 07:54:57;;;;;;;13.33;4.57;;;14.40;99.90;;;;;;5075762;28;20191;-76
2022/10/02 07:57:37;;;;;;;14.43;3.87;;;14.40;99.90;;;;;;5076264;28;20609;-76
2022/10/02 08:00:18;;;;;;;22.93;5.00;;;14.40;99.90;;;;;;5075635;28;20163;-76
2022/10/02 08:03:04;;;;;;;14.43;5.10;;;14.50;99.90;;;;;;5075574;28;20616;-76
2022/10/02 08:05:40;;;;;;;15.37;5.53;;;14.50;99.90;;;;;;5075502;28;20646;-77
2022/10/02 08:08:32;;;;;;;17.03;6.00;;;14.50;99.90;;;;;;5074001;28;20174;-75
2022/10/02 08:11:10;;;;;;;13.17;5.70;;;14.50;99.90;;;;;;5075263;28;20252;-75
2022/10/02 08:13:54;;;;;;;16.30;6.50;;;14.60;99.90;;;;;;5075130;28;20715;-74
2022/10/02 08:16:25;;;;;;;11.67;4.97;;;14.60;99.90;;;;;;5073912;28;20189;-75
2022/10/02 08:18:58;;;;;;;16.17;5.63;;;14.60;99.90;;;;;;5073844;28;20167;-75
2022/10/02 08:21:25;;;;;;;12.97;5.30;;;14.60;99.90;;;;;;5075365;28;20168;-75
2022/10/02 08:24:12;;;;;;;13.60;4.73;;;14.60;99.90;;;;;;5074924;28;20198;-74
2022/10/02 08:26:46;;;;;;;13.63;4.93;;;14.60;99.90;;;;;;5073680;28;20194;-74
2022/10/02 08:29:29;;;;;;;16.50;5.10;;;14.70;99.90;;;;;;5073725;28;20495;-75
2022/10/02 08:31:55;;;;;;;13.50;6.13;;;14.70;99.90;;;;;;5075179;28;20163;-75
2022/10/02 08:34:23;;;;;;;15.23;5.00;;;14.70;99.90;;;;;;5073526;28;20198;-75
2022/10/02 08:37:29;;;;;;;10.80;5.40;;;14.70;99.90;;;;;;5073512;28;20171;-75
2022/10/02 08:39:55;;;;;;;17.40;5.90;;;14.70;99.90;;;;;;5075013;28;20189;-75
2022/10/02 08:42:36;;;;;;;21.77;6.40;;;14.80;99.90;;;;;;5074711;28;20170;-75
2022/10/02 08:45:33;;;;;;;15.70;5.57;;;14.80;99.90;;;;;;5072742;28;20199;-75
2022/10/02 08:48:29;;;;;;;14.57;5.63;;;14.80;99.90;;;;;;5075153;28;20613;-75
2022/10/02 08:51:24;;;;;;;15.40;5.67;;;14.80;99.90;;;;;;5074453;28;20193;-74
2022/10/02 08:54:16;;;;;;;17.00;4.53;;;14.90;99.90;;;;;;5074410;28;20237;-75
2022/10/02 08:56:50;;;;;;;17.17;4.83;;;14.90;99.90;;;;;;5043298;28;20652;-75
2022/10/02 08:59:46;;;;;;;12.13;4.60;;;14.90;99.90;;;;;;5074376;28;20167;-75
2022/10/02 09:02:41;;;;;;;11.57;4.33;;;14.90;99.90;;;;;;5074294;28;20179;-75
2022/10/02 09:05:30;;;;;;;10.73;4.30;;;14.90;99.90;;;;;;5074068;28;20207;-75
2022/10/02 09:08:34;;;;;;;11.73;3.97;;;14.90;99.90;;;;;;5074614;28;20603;-75
2022/10/02 09:11:37;;;;;;;12.67;4.10;;;14.90;99.90;;;;;;5043196;28;20222;-75
2022/10/02 09:14:42;;;;;;;10.70;4.00;;;15.00;99.90;;;;;;5072721;28;20769;-75
2022/10/02 09:17:29;;;;;;;7.10;3.43;;;15.00;99.90;;;;;;5074258;28;20171;-75
2022/10/02 09:20:22;;;;;;;6.03;3.23;;;15.00;99.90;;;;;;5074050;28;20251;-75
2022/10/02 09:23:25;;;;;;;8.37;3.03;;;15.10;99.90;;;;;;5073967;28;20198;-75
2022/10/02 09:26:17;;;;;;;8.63;3.50;;;15.10;99.90;;;;;;5072574;28;20244;-75
2022/10/02 09:29:20;;;;;;;8.77;3.10;;;15.10;99.90;;;;;;5074112;28;20258;-75
2022/10/02 09:32:23;;;;;;;9.53;2.80;;;15.10;99.90;;;;;;5073684;28;20230;-75
2022/10/02 09:35:09;;;;;;;4.63;2.30;;;15.00;99.90;;;;;;5073774;28;20278;-75
2022/10/02 09:37:50;;;;;;;6.60;2.20;;;15.00;99.90;;;;;;5073640;28;20352;-75
2022/10/02 09:40:34;;;;;;;4.90;2.03;;;15.00;99.90;;;;;;5073528;28;20204;-75
2022/10/02 09:43:30;;;;;;;7.27;2.30;;;15.10;99.90;;;;;;5073525;28;20613;-75
2022/10/02 09:46:10;;;;;;;6.33;2.33;;;15.10;99.90;;;;;;5072272;28;20265;-76
2022/10/02 09:49:11;;;;;;;7.63;2.10;;;15.20;99.90;;;;;;5072170;28;20733;-75
2022/10/02 09:51:58;;;;;;;4.57;2.17;;;15.30;99.90;;;;;;5073346;28;20195;-74
2022/10/02 09:54:51;;;;;;;7.07;2.30;;;15.30;99.90;;;;;;5073083;28;20198;-75
2022/10/02 09:57:52;;;;;;;6.17;2.50;;;15.20;99.90;;;;;;5072125;28;20236;-75
2022/10/02 10:00:37;;;;;;;6.30;2.97;;;15.20;99.90;;;;;;5072115;28;20170;-75
2022/10/02 10:03:28;;;;;;;14.10;3.13;;;15.30;99.90;;;;;;5073266;28;20174;-75
2022/10/02 10:06:19;;;;;;;5.53;2.50;;;15.30;99.90;;;;;;5073563;28;20175;-75
2022/10/02 10:09:06;;;;;;;8.37;2.70;;;15.30;99.90;;;;;;5073178;28;20156;-74
2022/10/02 10:11:50;;;;;;;11.63;3.30;;;15.40;99.90;;;;;;5071756;28;20313;-75
2022/10/02 10:14:33;;;;;;;11.23;3.57;;;15.40;99.90;;;;;;5072139;28;20278;-76
2022/10/02 10:17:13;;;;;;;8.70;2.77;;;15.50;99.90;;;;;;5073210;28;20261;-76
2022/10/02 10:20:07;;;;;;;8.77;3.23;;;15.50;99.90;;;;;;5066557;22;20314;-80
2022/10/02 10:22:50;;;;;;;7.47;3.13;;;15.70;99.90;;;;;;5034670;28;20173;-78
2022/10/02 10:25:34;;;;;;;9.33;2.70;;;15.70;99.90;;;;;;5036194;28;20183;-81
2022/10/02 10:28:18;;;;;;;8.70;2.93;;;15.70;99.90;;;;;;5037702;28;20751;-78
2022/10/02 10:31:21;;;;;;;9.10;2.67;;;15.70;99.90;;;;;;5038630;28;20299;-80
2022/10/02 10:34:27;;;;;;;13.43;3.50;;;15.80;99.90;;;;;;5042261;28;20196;-80
2022/10/02 10:39:49;;;;;;;11.30;2.60;;;15.80;99.90;;;;;;5040205;28;20723;-79
2022/10/02 10:42:55;;;;;;;10.00;2.60;;;15.80;99.90;;;;;;5039224;28;20173;-80
2022/10/02 10:45:47;;;;;;;5.80;3.27;;;15.80;99.90;;;;;;5040224;28;20160;-80
2022/10/02 10:48:53;;;;;;;9.63;3.30;;;15.80;99.90;;;;;;5037861;28;20387;-80
2022/10/02 10:51:18;;;;;;;9.53;3.03;;;15.80;99.90;;;;;;5037776;28;20218;-80
2022/10/02 10:54:21;;;;;;;8.67;2.80;;;15.80;99.90;;;;;;5038680;28;20275;-80
2022/10/02 10:57:09;;;;;;;8.40;2.77;;;15.90;99.90;;;;;;5039829;28;20176;-80
2022/10/02 11:00:11;;;;;;;8.70;3.00;;;16.00;99.90;;;;;;5037774;28;20188;-79
2022/10/02 11:02:53;;;;;;;7.40;2.10;;;16.00;99.90;;;;;;5038396;28;20168;-79
2022/10/02 11:05:35;;;;;;;4.93;2.23;;;16.00;99.90;;;;;;5037020;28;20716;-81
2022/10/02 11:08:22;;;;;;;13.13;2.97;;;16.00;99.90;;;;;;5037535;28;20209;-81
2022/10/02 11:11:06;;;;;;;10.30;2.83;;;16.10;99.90;;;;;;5037285;28;20674;-82
2022/10/02 11:13:50;;;;;;;10.33;3.63;;;16.10;99.90;;;;;;5038407;28;20718;-81
2022/10/02 11:16:57;;;;;;;9.87;2.50;;;16.00;99.90;;;;;;5037994;28;20574;-82
2022/10/02 11:19:36;;;;;;;9.87;3.27;;;16.00;99.90;;;;;;5038135;28;20769;-81
2022/10/02 11:22:06;;;;;;;15.20;3.33;;;16.10;99.90;;;;;;5037237;28;20563;-82
2022/10/02 11:24:37;;;;;;;8.97;3.07;;;16.10;99.90;;;;;;5038964;28;20582;-82
2022/10/02 11:27:24;;;;;;;12.50;3.30;;;16.20;99.90;;;;;;5042603;28;20168;-79
2022/10/02 11:30:12;;;;;;;9.60;2.77;;;16.20;99.90;;;;;;5039926;28;20203;-80
2022/10/02 11:32:50;;;;;;;12.93;3.67;;;16.20;99.90;;;;;;5038926;28;20172;-80
2022/10/02 11:35:47;;;;;;;8.30;2.57;;;16.30;99.90;;;;;;5038956;28;20515;-81
2022/10/02 11:38:50;;;;;;;10.53;3.00;;;16.40;99.90;;;;;;5038843;28;20665;-83
2022/10/02 11:41:30;;;;;;;8.33;3.60;;;16.40;99.90;;;;;;5040719;28;20175;-81
2022/10/02 11:44:28;;;;;;;9.63;2.47;;;16.50;99.90;;;;;;5038620;28;20165;-81
2022/10/02 11:47:32;;;;;;;12.23;3.23;;;16.50;99.90;;;;;;5038950;28;20218;-81
2022/10/02 11:50:25;;;;;;;8.60;2.03;;;16.60;99.90;;;;;;5038973;28;20225;-81
2022/10/02 11:53:06;;;;;;;6.53;2.10;;;16.60;99.90;;;;;;5037649;28;20161;-81
2022/10/02 11:55:54;;;;;;;5.90;2.00;;;16.70;99.90;;;;;;5040357;28;20247;-81
2022/10/02 11:58:52;;;;;;;11.63;2.43;;;16.70;99.90;;;;;;5037273;28;20241;-81
2022/10/02 12:01:36;;;;;;;9.23;2.00;;;16.70;99.90;;;;;;5039091;28;20165;-81
2022/10/02 12:04:35;;;;;;;8.37;2.00;;;16.70;99.90;;;;;;5037791;28;20164;-82
2022/10/02 12:07:19;;;;;;;10.47;2.53;;;16.80;99.90;;;;;;5038245;28;20161;-79
2022/10/02 12:10:10;;;;;;;6.70;2.50;;;16.90;99.90;;;;;;5037890;28;20232;-79
2022/10/02 12:12:40;;;;;;;9.13;2.90;;;16.90;99.90;;;;;;5039251;28;20180;-80
2022/10/02 12:15:22;;;;;;;10.03;2.20;;;17.10;96.80;;;;;;5037944;28;20677;-79
2022/10/02 12:18:18;;;;;;;12.47;2.20;;;17.20;99.90;;;;;;5039107;28;20271;-79
2022/10/02 12:27:59;;;;;;;9.87;2.40;;;17.50;1.00;;;;;;5021179;28;20188;-80
2022/10/02 12:31:05;;;;;;;5.90;1.97;;;17.60;99.90;;;;;;4993698;28;20225;-79
2022/10/02 12:34:00;;;;;;;9.57;2.43;;;17.60;99.90;;;;;;5023943;28;20286;-78
2022/10/02 12:36:55;;;;;;;7.43;2.60;;;17.60;1.00;;;;;;5021483;28;20276;-78
2022/10/02 12:39:34;;;;;;;7.20;2.37;;;17.60;1.00;;;;;;5033821;28;20210;-78
2022/10/02 12:42:27;;;;;;;5.33;2.00;;;17.50;99.90;;;;;;5040487;28;20184;-78
2022/10/02 12:45:19;;;;;;;6.30;1.80;;;17.50;99.90;;;;;;5037580;28;20302;-79
2022/10/02 12:48:16;;;;;;;4.97;1.50;;;17.40;1.00;;;;;;5036881;28;20204;-80
2022/10/02 12:50:51;;;;;;;11.77;2.40;;;17.40;99.90;;;;;;5022443;28;20223;-77
2022/10/02 12:53:43;;;;;;;7.90;2.40;;;17.50;99.90;;;;;;5022435;28;20698;-79
2022/10/02 12:56:32;;;;;;;8.13;1.90;;;17.50;1.00;;;;;;5043892;28;20184;-79
2022/10/02 12:59:11;;;;;;;9.43;2.20;;;17.60;1.00;;;;;;5038838;28;20208;-79
2022/10/02 13:02:14;;;;;;;9.00;2.37;;;17.70;99.90;;;;;;5038928;28;20212;-78
2022/10/02 13:05:12;;;;;;;8.97;2.20;;;17.70;99.90;;;;;;5037569;28;20666;-77
2022/10/02 13:07:56;;;;;;;5.97;2.37;;;17.60;99.90;;;;;;5018203;28;20181;-79
2022/10/02 13:10:36;;;;;;;6.60;2.00;;;17.70;1.00;;;;;;5028194;28;20318;-78
2022/10/02 13:13:42;;;;;;;6.73;2.00;;;17.70;1.00;;;;;;5038331;28;20168;-76
2022/10/02 13:16:26;;;;;;;4.17;1.57;;;17.70;99.90;;;;;;5038482;28;20645;-78
2022/10/02 13:19:07;;;;;;;5.37;1.50;;;17.70;1.00;;;;;;5030565;28;20224;-78
2022/10/02 13:22:08;;;;;;;9.70;2.13;;;17.70;99.90;;;;;;5035223;28;20335;-78
2022/10/02 13:24:53;;;;;;;8.13;2.20;;;17.60;1.00;;;;;;5035378;28;20557;-79
2022/10/02 13:27:26;;;;;;;5.70;2.10;;;17.60;99.90;;;;;;5036571;28;20179;-78
2022/10/02 13:30:15;;;;;;;9.50;2.40;;;17.60;1.00;;;;;;5037845;28;20208;-79
2022/10/02 13:32:54;;;;;;;7.03;1.93;;;17.60;1.00;;;;;;5033047;28;20187;-77
2022/10/02 13:35:29;;;;;;;8.03;2.47;;;17.60;99.90;;;;;;5038978;28;20184;-79
2022/10/02 13:38:14;;;;;;;8.17;2.17;;;17.50;99.90;;;;;;5051579;28;20218;-80
2022/10/02 13:41:01;;;;;;;6.17;1.70;;;17.50;1.00;;;;;;5056655;28;20164;-79
2022/10/02 13:43:33;;;;;;;7.77;2.20;;;17.50;1.00;;;;;;5040667;28;20592;-78
2022/10/02 13:46:14;;;;;;;11.73;2.50;;;17.40;99.90;;;;;;5037542;28;20183;-78
2022/10/02 13:49:18;;;;;;;8.10;2.37;;;17.40;99.90;;;;;;5042500;28;20696;-78
2022/10/02 13:51:51;;;;;;;11.10;2.70;;;17.30;53.50;;;;;;5039956;28;20362;-79
2022/10/02 13:54:22;;;;;;;8.53;2.97;;;17.20;1.00;;;;;;5040146;28;20203;-81
2022/10/02 13:57:10;;;;;;;6.67;2.20;;;17.20;1.00;;;;;;5033360;28;20625;-79
2022/10/02 13:59:55;;;;;;;5.13;1.60;;;17.20;99.90;;;;;;5038544;28;20199;-80
2022/10/02 14:02:26;;;;;;;6.30;1.83;;;17.10;99.90;;;;;;5040137;28;20216;-79
2022/10/02 14:05:15;;;;;;;11.03;2.60;;;17.20;1.00;;;;;;5037013;28;20175;-79
2022/10/02 14:08:05;;;;;;;9.00;2.23;;;17.30;99.90;;;;;;5038193;28;20164;-79
2022/10/02 14:10:52;;;;;;;5.17;1.97;;;17.30;99.90;;;;;;5037726;28;20210;-79
2022/10/02 14:13:27;;;;;;;10.00;2.00;;;17.40;1.00;;;;;;5036191;28;20172;-79